sensor_id;sensor_type;location;lat;lon;timestamp;temperature;humidity
81210;DHT22;70685;52.496;13.420;2023-10-19T00:02:13;8.90;63.70
81210;DHT22;70685;52.496;13.420;2023-10-19T00:04:40;8.80;63.70
81210;DHT22;70685;52.496;13.420;2023-10-19T00:07:09;8.80;63.70
81210;DHT22;70685;52.496;13.420;2023-10-19T00:09:43;8.70;63.70
81210;DHT22;70685;52.496;13.420;2023-10-19T00:12:11;8.70;64.00
81210;DHT22;70685;52.496;13.420;2023-10-19T00:14:41;8.70;64.00
81210;DHT22;70685;52.496;13.420;2023-10-19T00:17:09;8.70;63.80
81210;DHT22;70685;52.496;13.420;2023-10-19T00:19:39;8.80;63.70
81210;DHT22;70685;52.496;13.420;2023-10-19T00:22:09;8.80;63.80
81210;DHT22;70685;52.496;13.420;2023-10-19T00:24:41;8.80;63.70
81210;DHT22;70685;52.496;13.420;2023-10-19T00:27:09;8.80;63.40
81210;DHT22;70685;52.496;13.420;2023-10-19T00:29:43;8.80;63.70
81210;DHT22;70685;52.496;13.420;2023-10-19T00:32:15;8.80;63.50
81210;DHT22;70685;52.496;13.420;2023-10-19T00:34:44;8.80;63.20
81210;DHT22;70685;52.496;13.420;2023-10-19T00:37:17;8.80;63.30
81210;DHT22;70685;52.496;13.420;2023-10-19T00:39:55;8.70;63.60
81210;DHT22;70685;52.496;13.420;2023-10-19T00:42:21;8.70;63.80
81210;DHT22;70685;52.496;13.420;2023-10-19T00:44:55;8.70;64.10
81210;DHT22;70685;52.496;13.420;2023-10-19T00:47:29;8.80;64.10
81210;DHT22;70685;52.496;13.420;2023-10-19T00:50:07;8.80;63.70
81210;DHT22;70685;52.496;13.420;2023-10-19T00:52:43;8.70;63.80
81210;DHT22;70685;52.496;13.420;2023-10-19T00:55:15;8.70;63.80
81210;DHT22;70685;52.496;13.420;2023-10-19T00:57:42;8.80;64.00
81210;DHT22;70685;52.496;13.420;2023-10-19T01:00:14;8.70;63.60
81210;DHT22;70685;52.496;13.420;2023-10-19T01:03:00;8.60;64.10
81210;DHT22;70685;52.496;13.420;2023-10-19T01:05:29;8.70;64.10
81210;DHT22;70685;52.496;13.420;2023-10-19T01:08:02;8.60;64.30
81210;DHT22;70685;52.496;13.420;2023-10-19T01:10:36;8.50;64.40
81210;DHT22;70685;52.496;13.420;2023-10-19T01:13:04;8.60;64.50
81210;DHT22;70685;52.496;13.420;2023-10-19T01:15:33;8.60;64.30
81210;DHT22;70685;52.496;13.420;2023-10-19T01:18:02;8.60;64.50
81210;DHT22;70685;52.496;13.420;2023-10-19T01:20:35;8.50;64.70
81210;DHT22;70685;52.496;13.420;2023-10-19T01:23:20;8.50;64.80
81210;DHT22;70685;52.496;13.420;2023-10-19T01:25:56;8.50;65.10
81210;DHT22;70685;52.496;13.420;2023-10-19T01:31:04;8.60;64.80
81210;DHT22;70685;52.496;13.420;2023-10-19T01:33:31;8.60;64.40
81210;DHT22;70685;52.496;13.420;2023-10-19T01:36:00;8.50;64.50
81210;DHT22;70685;52.496;13.420;2023-10-19T01:38:41;8.50;64.80
81210;DHT22;70685;52.496;13.420;2023-10-19T01:41:08;8.60;64.30
81210;DHT22;70685;52.496;13.420;2023-10-19T01:43:45;8.60;64.50
81210;DHT22;70685;52.496;13.420;2023-10-19T01:46:14;8.60;64.40
81210;DHT22;70685;52.496;13.420;2023-10-19T01:48:48;8.60;64.20
81210;DHT22;70685;52.496;13.420;2023-10-19T01:51:18;8.70;64.20
81210;DHT22;70685;52.496;13.420;2023-10-19T01:53:44;8.70;64.50
81210;DHT22;70685;52.496;13.420;2023-10-19T01:56:11;8.70;64.00
81210;DHT22;70685;52.496;13.420;2023-10-19T01:58:40;8.70;64.00
81210;DHT22;70685;52.496;13.420;2023-10-19T02:01:09;8.60;64.00
81210;DHT22;70685;52.496;13.420;2023-10-19T02:03:42;8.70;64.00
81210;DHT22;70685;52.496;13.420;2023-10-19T02:06:09;8.70;64.10
81210;DHT22;70685;52.496;13.420;2023-10-19T02:11:28;8.70;64.00
81210;DHT22;70685;52.496;13.420;2023-10-19T02:13:55;8.70;63.90
81210;DHT22;70685;52.496;13.420;2023-10-19T02:16:22;8.60;64.10
81210;DHT22;70685;52.496;13.420;2023-10-19T02:18:51;8.60;64.50
81210;DHT22;70685;52.496;13.420;2023-10-19T02:21:19;8.60;64.60
81210;DHT22;70685;52.496;13.420;2023-10-19T02:23:48;8.60;64.20
81210;DHT22;70685;52.496;13.420;2023-10-19T02:26:24;8.70;64.10
81210;DHT22;70685;52.496;13.420;2023-10-19T02:28:56;8.70;63.90
81210;DHT22;70685;52.496;13.420;2023-10-19T02:31:22;8.70;64.00
81210;DHT22;70685;52.496;13.420;2023-10-19T02:33:56;8.70;64.20
81210;DHT22;70685;52.496;13.420;2023-10-19T02:38:58;8.70;63.60
81210;DHT22;70685;52.496;13.420;2023-10-19T02:41:25;8.60;64.30
81210;DHT22;70685;52.496;13.420;2023-10-19T02:43:55;8.70;64.30
81210;DHT22;70685;52.496;13.420;2023-10-19T02:46:31;8.70;63.90
81210;DHT22;70685;52.496;13.420;2023-10-19T02:49:01;8.80;64.00
81210;DHT22;70685;52.496;13.420;2023-10-19T02:51:28;8.80;63.30
81210;DHT22;70685;52.496;13.420;2023-10-19T02:53:57;8.80;63.60
81210;DHT22;70685;52.496;13.420;2023-10-19T02:56:28;8.90;63.00
81210;DHT22;70685;52.496;13.420;2023-10-19T02:58:56;8.90;63.70
81210;DHT22;70685;52.496;13.420;2023-10-19T03:01:29;8.90;63.70
81210;DHT22;70685;52.496;13.420;2023-10-19T03:03:57;8.90;63.40
81210;DHT22;70685;52.496;13.420;2023-10-19T03:06:27;8.90;63.50
81210;DHT22;70685;52.496;13.420;2023-10-19T03:09:00;8.90;63.50
81210;DHT22;70685;52.496;13.420;2023-10-19T03:11:47;8.90;63.20
81210;DHT22;70685;52.496;13.420;2023-10-19T03:14:20;8.90;63.20
81210;DHT22;70685;52.496;13.420;2023-10-19T03:16:46;8.90;63.30
81210;DHT22;70685;52.496;13.420;2023-10-19T03:19:11;9.00;63.10
81210;DHT22;70685;52.496;13.420;2023-10-19T03:21:38;8.90;63.30
81210;DHT22;70685;52.496;13.420;2023-10-19T03:24:14;8.80;63.70
81210;DHT22;70685;52.496;13.420;2023-10-19T03:27:11;8.80;63.70
81210;DHT22;70685;52.496;13.420;2023-10-19T03:29:50;8.90;63.60
81210;DHT22;70685;52.496;13.420;2023-10-19T03:32:21;8.90;63.70
81210;DHT22;70685;52.496;13.420;2023-10-19T03:34:54;9.00;63.30
81210;DHT22;70685;52.496;13.420;2023-10-19T03:37:27;8.90;63.30
81210;DHT22;70685;52.496;13.420;2023-10-19T03:39:56;8.90;63.40
81210;DHT22;70685;52.496;13.420;2023-10-19T03:42:22;8.90;63.40
81210;DHT22;70685;52.496;13.420;2023-10-19T03:44:52;9.10;62.90
81210;DHT22;70685;52.496;13.420;2023-10-19T03:47:20;9.00;63.00
81210;DHT22;70685;52.496;13.420;2023-10-19T03:49:50;9.00;63.40
81210;DHT22;70685;52.496;13.420;2023-10-19T03:52:16;9.00;63.20
81210;DHT22;70685;52.496;13.420;2023-10-19T03:54:42;9.10;62.90
81210;DHT22;70685;52.496;13.420;2023-10-19T03:57:12;9.10;63.30
81210;DHT22;70685;52.496;13.420;2023-10-19T03:59:39;9.00;63.30
81210;DHT22;70685;52.496;13.420;2023-10-19T04:02:08;9.00;63.20
81210;DHT22;70685;52.496;13.420;2023-10-19T04:04:48;9.00;63.10
81210;DHT22;70685;52.496;13.420;2023-10-19T04:07:17;8.90;63.10
81210;DHT22;70685;52.496;13.420;2023-10-19T04:09:49;8.90;63.50
81210;DHT22;70685;52.496;13.420;2023-10-19T04:12:29;8.90;63.70
81210;DHT22;70685;52.496;13.420;2023-10-19T04:14:56;9.00;63.70
81210;DHT22;70685;52.496;13.420;2023-10-19T04:17:22;8.90;63.50
81210;DHT22;70685;52.496;13.420;2023-10-19T04:19:50;8.90;63.60
81210;DHT22;70685;52.496;13.420;2023-10-19T04:22:20;8.90;63.20
81210;DHT22;70685;52.496;13.420;2023-10-19T04:24:53;8.90;63.30
81210;DHT22;70685;52.496;13.420;2023-10-19T04:27:18;8.80;63.80
81210;DHT22;70685;52.496;13.420;2023-10-19T04:29:49;8.80;64.00
81210;DHT22;70685;52.496;13.420;2023-10-19T04:32:18;8.90;63.80
81210;DHT22;70685;52.496;13.420;2023-10-19T04:34:53;8.80;63.80
81210;DHT22;70685;52.496;13.420;2023-10-19T04:37:19;8.80;63.70
81210;DHT22;70685;52.496;13.420;2023-10-19T04:39:47;8.90;63.70
81210;DHT22;70685;52.496;13.420;2023-10-19T04:42:15;8.90;63.70
81210;DHT22;70685;52.496;13.420;2023-10-19T04:44:41;8.90;63.20
81210;DHT22;70685;52.496;13.420;2023-10-19T04:47:06;8.90;63.70
81210;DHT22;70685;52.496;13.420;2023-10-19T04:49:34;8.90;63.70
81210;DHT22;70685;52.496;13.420;2023-10-19T04:52:02;8.90;63.70
81210;DHT22;70685;52.496;13.420;2023-10-19T04:54:31;8.80;63.80
81210;DHT22;70685;52.496;13.420;2023-10-19T04:56:56;8.80;64.40
81210;DHT22;70685;52.496;13.420;2023-10-19T04:59:22;8.70;63.80
81210;DHT22;70685;52.496;13.420;2023-10-19T05:01:48;8.70;63.80
81210;DHT22;70685;52.496;13.420;2023-10-19T05:04:15;8.70;63.90
81210;DHT22;70685;52.496;13.420;2023-10-19T05:06:42;8.70;64.10
81210;DHT22;70685;52.496;13.420;2023-10-19T05:09:08;8.70;64.40
81210;DHT22;70685;52.496;13.420;2023-10-19T05:11:36;8.70;64.40
81210;DHT22;70685;52.496;13.420;2023-10-19T05:14:01;8.70;64.30
81210;DHT22;70685;52.496;13.420;2023-10-19T05:16:29;8.70;64.50
81210;DHT22;70685;52.496;13.420;2023-10-19T05:18:55;8.70;63.90
81210;DHT22;70685;52.496;13.420;2023-10-19T05:21:25;8.70;64.20
81210;DHT22;70685;52.496;13.420;2023-10-19T05:23:50;8.70;64.20
81210;DHT22;70685;52.496;13.420;2023-10-19T05:26:16;8.60;64.70
81210;DHT22;70685;52.496;13.420;2023-10-19T05:28:42;8.60;64.60
81210;DHT22;70685;52.496;13.420;2023-10-19T05:31:08;8.70;64.60
81210;DHT22;70685;52.496;13.420;2023-10-19T05:33:33;8.70;64.60
81210;DHT22;70685;52.496;13.420;2023-10-19T05:35:59;8.60;64.50
81210;DHT22;70685;52.496;13.420;2023-10-19T05:38:26;8.60;64.70
81210;DHT22;70685;52.496;13.420;2023-10-19T05:40:57;8.60;64.90
81210;DHT22;70685;52.496;13.420;2023-10-19T05:43:25;8.50;65.90
81210;DHT22;70685;52.496;13.420;2023-10-19T05:45:51;8.50;65.20
81210;DHT22;70685;52.496;13.420;2023-10-19T05:48:17;8.40;65.60
81210;DHT22;70685;52.496;13.420;2023-10-19T05:50:43;8.50;65.90
81210;DHT22;70685;52.496;13.420;2023-10-19T05:53:08;8.50;65.50
81210;DHT22;70685;52.496;13.420;2023-10-19T05:55:34;8.50;65.50
81210;DHT22;70685;52.496;13.420;2023-10-19T05:58:01;8.50;65.30
81210;DHT22;70685;52.496;13.420;2023-10-19T06:00:32;8.50;65.30
81210;DHT22;70685;52.496;13.420;2023-10-19T06:02:58;8.60;65.20
81210;DHT22;70685;52.496;13.420;2023-10-19T06:05:26;8.60;65.70
81210;DHT22;70685;52.496;13.420;2023-10-19T06:07:54;8.70;66.10
81210;DHT22;70685;52.496;13.420;2023-10-19T06:10:21;8.50;66.60
81210;DHT22;70685;52.496;13.420;2023-10-19T06:12:51;8.50;67.00
81210;DHT22;70685;52.496;13.420;2023-10-19T06:15:22;8.50;67.00
81210;DHT22;70685;52.496;13.420;2023-10-19T06:17:50;8.40;67.70
81210;DHT22;70685;52.496;13.420;2023-10-19T06:20:16;8.30;68.20
81210;DHT22;70685;52.496;13.420;2023-10-19T06:22:58;8.30;68.00
81210;DHT22;70685;52.496;13.420;2023-10-19T06:25:30;8.40;68.40
81210;DHT22;70685;52.496;13.420;2023-10-19T06:27:56;8.40;68.60
81210;DHT22;70685;52.496;13.420;2023-10-19T06:30:25;8.40;68.60
81210;DHT22;70685;52.496;13.420;2023-10-19T06:32:55;8.30;69.30
81210;DHT22;70685;52.496;13.420;2023-10-19T06:35:22;8.20;70.10
81210;DHT22;70685;52.496;13.420;2023-10-19T06:37:49;8.10;70.30
81210;DHT22;70685;52.496;13.420;2023-10-19T06:40:17;8.00;71.60
81210;DHT22;70685;52.496;13.420;2023-10-19T06:42:46;8.00;71.50
81210;DHT22;70685;52.496;13.420;2023-10-19T06:45:13;8.00;70.50
81210;DHT22;70685;52.496;13.420;2023-10-19T06:47:43;8.00;71.50
81210;DHT22;70685;52.496;13.420;2023-10-19T06:50:10;8.00;71.80
81210;DHT22;70685;52.496;13.420;2023-10-19T06:52:44;8.10;70.20
81210;DHT22;70685;52.496;13.420;2023-10-19T06:55:10;8.10;70.50
81210;DHT22;70685;52.496;13.420;2023-10-19T06:57:42;8.10;70.70
81210;DHT22;70685;52.496;13.420;2023-10-19T07:00:10;8.10;70.80
81210;DHT22;70685;52.496;13.420;2023-10-19T07:02:43;8.10;71.00
81210;DHT22;70685;52.496;13.420;2023-10-19T07:05:12;8.10;70.50
81210;DHT22;70685;52.496;13.420;2023-10-19T07:07:42;8.10;70.30
81210;DHT22;70685;52.496;13.420;2023-10-19T07:10:08;8.20;70.70
81210;DHT22;70685;52.496;13.420;2023-10-19T07:12:36;8.20;69.80
81210;DHT22;70685;52.496;13.420;2023-10-19T07:15:03;8.20;69.90
81210;DHT22;70685;52.496;13.420;2023-10-19T07:17:35;8.20;69.90
81210;DHT22;70685;52.496;13.420;2023-10-19T07:20:04;8.30;70.30
81210;DHT22;70685;52.496;13.420;2023-10-19T07:22:32;8.20;69.70
81210;DHT22;70685;52.496;13.420;2023-10-19T07:25:00;8.20;70.60
81210;DHT22;70685;52.496;13.420;2023-10-19T07:27:31;8.20;70.20
81210;DHT22;70685;52.496;13.420;2023-10-19T07:29:57;8.30;70.00
81210;DHT22;70685;52.496;13.420;2023-10-19T07:32:24;8.40;70.00
81210;DHT22;70685;52.496;13.420;2023-10-19T07:34:50;8.40;69.70
81210;DHT22;70685;52.496;13.420;2023-10-19T07:37:15;8.50;69.70
81210;DHT22;70685;52.496;13.420;2023-10-19T07:39:47;8.60;69.90
81210;DHT22;70685;52.496;13.420;2023-10-19T07:42:16;8.50;69.50
81210;DHT22;70685;52.496;13.420;2023-10-19T07:44:42;8.70;69.80
81210;DHT22;70685;52.496;13.420;2023-10-19T07:47:11;8.70;69.40
81210;DHT22;70685;52.496;13.420;2023-10-19T07:49:37;8.80;69.30
81210;DHT22;70685;52.496;13.420;2023-10-19T07:52:07;8.90;68.70
81210;DHT22;70685;52.496;13.420;2023-10-19T07:54:34;9.00;67.90
81210;DHT22;70685;52.496;13.420;2023-10-19T07:57:03;9.00;67.10
81210;DHT22;70685;52.496;13.420;2023-10-19T07:59:35;9.00;67.50
81210;DHT22;70685;52.496;13.420;2023-10-19T08:02:01;9.00;67.50
81210;DHT22;70685;52.496;13.420;2023-10-19T08:04:32;9.10;67.40
81210;DHT22;70685;52.496;13.420;2023-10-19T08:06:58;9.20;66.80
81210;DHT22;70685;52.496;13.420;2023-10-19T08:09:28;9.10;67.00
81210;DHT22;70685;52.496;13.420;2023-10-19T08:11:57;9.20;66.80
81210;DHT22;70685;52.496;13.420;2023-10-19T08:14:27;9.10;67.40
81210;DHT22;70685;52.496;13.420;2023-10-19T08:16:56;9.10;68.20
81210;DHT22;70685;52.496;13.420;2023-10-19T08:19:24;9.10;67.50
81210;DHT22;70685;52.496;13.420;2023-10-19T08:21:52;9.10;67.60
81210;DHT22;70685;52.496;13.420;2023-10-19T08:24:17;9.20;67.00
81210;DHT22;70685;52.496;13.420;2023-10-19T08:26:44;9.20;67.10
81210;DHT22;70685;52.496;13.420;2023-10-19T08:29:16;9.20;67.00
81210;DHT22;70685;52.496;13.420;2023-10-19T08:31:46;9.30;66.40
81210;DHT22;70685;52.496;13.420;2023-10-19T08:34:11;9.40;66.40
81210;DHT22;70685;52.496;13.420;2023-10-19T08:36:38;9.50;66.00
81210;DHT22;70685;52.496;13.420;2023-10-19T08:39:08;9.50;66.60
81210;DHT22;70685;52.496;13.420;2023-10-19T08:41:40;9.60;66.30
81210;DHT22;70685;52.496;13.420;2023-10-19T08:44:09;9.60;66.00
81210;DHT22;70685;52.496;13.420;2023-10-19T08:46:44;9.60;65.30
81210;DHT22;70685;52.496;13.420;2023-10-19T08:49:14;9.80;65.20
81210;DHT22;70685;52.496;13.420;2023-10-19T08:51:44;9.80;65.20
81210;DHT22;70685;52.496;13.420;2023-10-19T08:54:18;9.80;66.50
81210;DHT22;70685;52.496;13.420;2023-10-19T08:56:44;9.90;65.50
81210;DHT22;70685;52.496;13.420;2023-10-19T08:59:12;10.00;64.60
81210;DHT22;70685;52.496;13.420;2023-10-19T09:01:41;9.90;64.60
81210;DHT22;70685;52.496;13.420;2023-10-19T09:04:12;9.80;64.90
81210;DHT22;70685;52.496;13.420;2023-10-19T09:06:39;9.90;65.40
81210;DHT22;70685;52.496;13.420;2023-10-19T09:09:11;10.00;64.80
81210;DHT22;70685;52.496;13.420;2023-10-19T09:11:48;10.10;64.70
81210;DHT22;70685;52.496;13.420;2023-10-19T09:14:15;10.20;64.90
81210;DHT22;70685;52.496;13.420;2023-10-19T09:16:56;10.30;64.30
81210;DHT22;70685;52.496;13.420;2023-10-19T09:19:55;10.30;64.00
81210;DHT22;70685;52.496;13.420;2023-10-19T09:22:24;10.40;64.30
81210;DHT22;70685;52.496;13.420;2023-10-19T09:24:52;10.50;64.10
81210;DHT22;70685;52.496;13.420;2023-10-19T09:27:23;10.50;63.90
81210;DHT22;70685;52.496;13.420;2023-10-19T09:29:51;10.50;64.10
81210;DHT22;70685;52.496;13.420;2023-10-19T09:32:19;10.50;63.80
81210;DHT22;70685;52.496;13.420;2023-10-19T09:34:45;10.40;64.50
81210;DHT22;70685;52.496;13.420;2023-10-19T09:37:15;10.50;64.60
81210;DHT22;70685;52.496;13.420;2023-10-19T09:39:41;10.50;64.50
81210;DHT22;70685;52.496;13.420;2023-10-19T09:42:09;10.60;64.10
81210;DHT22;70685;52.496;13.420;2023-10-19T09:44:50;10.60;64.40
81210;DHT22;70685;52.496;13.420;2023-10-19T09:47:38;10.70;64.20
81210;DHT22;70685;52.496;13.420;2023-10-19T09:50:04;10.70;64.20
81210;DHT22;70685;52.496;13.420;2023-10-19T09:52:33;10.70;64.10
81210;DHT22;70685;52.496;13.420;2023-10-19T09:55:17;10.70;64.60
81210;DHT22;70685;52.496;13.420;2023-10-19T09:58:09;10.80;64.20
81210;DHT22;70685;52.496;13.420;2023-10-19T10:00:44;10.70;64.30
81210;DHT22;70685;52.496;13.420;2023-10-19T10:06:30;10.40;65.80
81210;DHT22;70685;52.496;13.420;2023-10-19T10:09:18;10.40;65.70
81210;DHT22;70685;52.496;13.420;2023-10-19T10:11:52;10.50;66.20
81210;DHT22;70685;52.496;13.420;2023-10-19T10:14:25;10.60;65.20
81210;DHT22;70685;52.496;13.420;2023-10-19T10:17:01;10.70;65.00
81210;DHT22;70685;52.496;13.420;2023-10-19T10:19:26;10.70;65.20
81210;DHT22;70685;52.496;13.420;2023-10-19T10:22:09;10.70;65.50
81210;DHT22;70685;52.496;13.420;2023-10-19T10:24:41;10.80;65.20
81210;DHT22;70685;52.496;13.420;2023-10-19T10:27:07;10.70;65.50
81210;DHT22;70685;52.496;13.420;2023-10-19T10:29:33;10.60;66.20
81210;DHT22;70685;52.496;13.420;2023-10-19T10:32:01;10.40;67.80
81210;DHT22;70685;52.496;13.420;2023-10-19T10:37:08;9.90;71.80
81210;DHT22;70685;52.496;13.420;2023-10-19T10:39:35;9.90;72.60
81210;DHT22;70685;52.496;13.420;2023-10-19T10:42:09;9.90;73.50
81210;DHT22;70685;52.496;13.420;2023-10-19T10:44:40;9.80;73.20
81210;DHT22;70685;52.496;13.420;2023-10-19T10:47:22;9.70;74.30
81210;DHT22;70685;52.496;13.420;2023-10-19T10:49:54;9.70;74.70
81210;DHT22;70685;52.496;13.420;2023-10-19T10:52:32;9.60;74.60
81210;DHT22;70685;52.496;13.420;2023-10-19T10:55:13;9.70;74.60
81210;DHT22;70685;52.496;13.420;2023-10-19T10:57:43;9.70;74.60
81210;DHT22;70685;52.496;13.420;2023-10-19T11:00:14;9.70;74.50
81210;DHT22;70685;52.496;13.420;2023-10-19T11:02:46;9.70;74.40
81210;DHT22;70685;52.496;13.420;2023-10-19T11:05:13;9.70;74.50
81210;DHT22;70685;52.496;13.420;2023-10-19T11:10:28;9.70;74.40
81210;DHT22;70685;52.496;13.420;2023-10-19T11:13:08;9.70;74.30
81210;DHT22;70685;52.496;13.420;2023-10-19T11:15:37;9.60;74.40
81210;DHT22;70685;52.496;13.420;2023-10-19T11:18:08;9.60;74.80
81210;DHT22;70685;52.496;13.420;2023-10-19T11:20:34;9.60;75.20
81210;DHT22;70685;52.496;13.420;2023-10-19T11:22:59;9.60;74.30
81210;DHT22;70685;52.496;13.420;2023-10-19T11:25:29;9.60;74.50
81210;DHT22;70685;52.496;13.420;2023-10-19T11:28:00;9.50;74.30
81210;DHT22;70685;52.496;13.420;2023-10-19T11:30:29;9.40;75.30
81210;DHT22;70685;52.496;13.420;2023-10-19T11:32:56;9.30;75.40
81210;DHT22;70685;52.496;13.420;2023-10-19T11:35:29;9.20;75.90
81210;DHT22;70685;52.496;13.420;2023-10-19T11:37:57;9.20;76.20
81210;DHT22;70685;52.496;13.420;2023-10-19T11:40:27;9.30;75.90
81210;DHT22;70685;52.496;13.420;2023-10-19T11:42:54;9.30;76.20
81210;DHT22;70685;52.496;13.420;2023-10-19T11:45:22;9.30;76.20
81210;DHT22;70685;52.496;13.420;2023-10-19T11:47:51;9.30;76.50
81210;DHT22;70685;52.496;13.420;2023-10-19T11:50:17;9.30;76.20
81210;DHT22;70685;52.496;13.420;2023-10-19T11:52:45;9.30;76.30
81210;DHT22;70685;52.496;13.420;2023-10-19T11:55:18;9.30;76.20
81210;DHT22;70685;52.496;13.420;2023-10-19T11:57:46;9.20;77.00
81210;DHT22;70685;52.496;13.420;2023-10-19T12:00:14;9.20;77.50
81210;DHT22;70685;52.496;13.420;2023-10-19T12:02:47;9.20;77.30
81210;DHT22;70685;52.496;13.420;2023-10-19T12:05:13;9.30;77.30
81210;DHT22;70685;52.496;13.420;2023-10-19T12:07:39;9.30;77.20
81210;DHT22;70685;52.496;13.420;2023-10-19T12:10:10;9.40;77.30
81210;DHT22;70685;52.496;13.420;2023-10-19T12:12:36;9.40;77.40
81210;DHT22;70685;52.496;13.420;2023-10-19T12:15:04;9.40;77.00
81210;DHT22;70685;52.496;13.420;2023-10-19T12:17:32;9.40;77.20
81210;DHT22;70685;52.496;13.420;2023-10-19T12:19:58;9.30;77.90
81210;DHT22;70685;52.496;13.420;2023-10-19T12:22:26;9.40;78.10
81210;DHT22;70685;52.496;13.420;2023-10-19T12:24:59;9.40;77.70
81210;DHT22;70685;52.496;13.420;2023-10-19T12:27:25;9.50;77.10
81210;DHT22;70685;52.496;13.420;2023-10-19T12:29:54;9.50;77.30
81210;DHT22;70685;52.496;13.420;2023-10-19T12:32:21;9.50;77.90
81210;DHT22;70685;52.496;13.420;2023-10-19T12:34:47;9.50;78.10
81210;DHT22;70685;52.496;13.420;2023-10-19T12:37:20;9.60;78.00
81210;DHT22;70685;52.496;13.420;2023-10-19T12:39:49;9.70;77.70
81210;DHT22;70685;52.496;13.420;2023-10-19T12:42:16;9.70;77.50
81210;DHT22;70685;52.496;13.420;2023-10-19T12:44:42;9.70;77.20
81210;DHT22;70685;52.496;13.420;2023-10-19T12:47:13;9.70;77.60
81210;DHT22;70685;52.496;13.420;2023-10-19T12:49:40;9.60;77.60
81210;DHT22;70685;52.496;13.420;2023-10-19T12:52:07;9.70;77.70
81210;DHT22;70685;52.496;13.420;2023-10-19T12:54:38;9.60;77.60
81210;DHT22;70685;52.496;13.420;2023-10-19T12:57:11;9.60;77.80
81210;DHT22;70685;52.496;13.420;2023-10-19T12:59:38;9.50;77.90
81210;DHT22;70685;52.496;13.420;2023-10-19T13:02:04;9.50;78.30
81210;DHT22;70685;52.496;13.420;2023-10-19T13:04:36;9.50;78.30
81210;DHT22;70685;52.496;13.420;2023-10-19T13:07:02;9.50;78.70
81210;DHT22;70685;52.496;13.420;2023-10-19T13:09:28;9.60;78.90
81210;DHT22;70685;52.496;13.420;2023-10-19T13:12:00;9.60;78.40
81210;DHT22;70685;52.496;13.420;2023-10-19T13:14:27;9.60;78.10
81210;DHT22;70685;52.496;13.420;2023-10-19T13:16:56;9.60;77.40
81210;DHT22;70685;52.496;13.420;2023-10-19T13:19:24;9.50;77.60
81210;DHT22;70685;52.496;13.420;2023-10-19T13:21:53;9.40;77.90
81210;DHT22;70685;52.496;13.420;2023-10-19T13:24:21;9.30;78.00
81210;DHT22;70685;52.496;13.420;2023-10-19T13:26:48;9.30;78.00
81210;DHT22;70685;52.496;13.420;2023-10-19T13:29:14;9.20;78.20
81210;DHT22;70685;52.496;13.420;2023-10-19T13:31:43;9.20;78.70
81210;DHT22;70685;52.496;13.420;2023-10-19T13:34:15;9.20;78.60
81210;DHT22;70685;52.496;13.420;2023-10-19T13:36:41;9.20;78.90
81210;DHT22;70685;52.496;13.420;2023-10-19T13:39:08;9.20;78.60
81210;DHT22;70685;52.496;13.420;2023-10-19T13:41:41;9.20;79.20
81210;DHT22;70685;52.496;13.420;2023-10-19T13:44:09;9.20;78.60
81210;DHT22;70685;52.496;13.420;2023-10-19T13:46:37;9.30;78.50
81210;DHT22;70685;52.496;13.420;2023-10-19T13:49:02;9.30;79.20
81210;DHT22;70685;52.496;13.420;2023-10-19T13:51:33;9.30;78.80
81210;DHT22;70685;52.496;13.420;2023-10-19T13:53:58;9.40;78.40
81210;DHT22;70685;52.496;13.420;2023-10-19T13:56:24;9.30;78.30
81210;DHT22;70685;52.496;13.420;2023-10-19T13:58:51;9.30;78.80
81210;DHT22;70685;52.496;13.420;2023-10-19T14:01:17;9.30;77.90
81210;DHT22;70685;52.496;13.420;2023-10-19T14:03:43;9.30;78.10
81210;DHT22;70685;52.496;13.420;2023-10-19T14:06:12;9.30;78.20
81210;DHT22;70685;52.496;13.420;2023-10-19T14:08:38;9.20;78.30
81210;DHT22;70685;52.496;13.420;2023-10-19T14:11:04;9.20;78.70
81210;DHT22;70685;52.496;13.420;2023-10-19T14:13:30;9.20;78.50
81210;DHT22;70685;52.496;13.420;2023-10-19T14:15:56;9.20;78.80
81210;DHT22;70685;52.496;13.420;2023-10-19T14:18:26;9.20;78.80
81210;DHT22;70685;52.496;13.420;2023-10-19T14:20:54;9.20;78.30
81210;DHT22;70685;52.496;13.420;2023-10-19T14:23:25;9.20;78.80
81210;DHT22;70685;52.496;13.420;2023-10-19T14:25:50;9.20;78.70
81210;DHT22;70685;52.496;13.420;2023-10-19T14:28:16;9.20;78.60
81210;DHT22;70685;52.496;13.420;2023-10-19T14:30:42;9.20;79.10
81210;DHT22;70685;52.496;13.420;2023-10-19T14:33:12;9.20;79.40
81210;DHT22;70685;52.496;13.420;2023-10-19T14:35:38;9.20;79.70
81210;DHT22;70685;52.496;13.420;2023-10-19T14:38:10;9.30;78.60
81210;DHT22;70685;52.496;13.420;2023-10-19T14:40:38;9.30;78.60
81210;DHT22;70685;52.496;13.420;2023-10-19T14:43:11;9.20;78.70
81210;DHT22;70685;52.496;13.420;2023-10-19T14:45:41;9.10;78.90
81210;DHT22;70685;52.496;13.420;2023-10-19T14:48:10;9.10;79.30
81210;DHT22;70685;52.496;13.420;2023-10-19T14:50:36;9.20;79.20
81210;DHT22;70685;52.496;13.420;2023-10-19T14:53:05;9.20;79.00
81210;DHT22;70685;52.496;13.420;2023-10-19T14:55:30;9.20;78.80
81210;DHT22;70685;52.496;13.420;2023-10-19T14:57:59;9.20;79.20
81210;DHT22;70685;52.496;13.420;2023-10-19T15:00:26;9.10;79.10
81210;DHT22;70685;52.496;13.420;2023-10-19T15:03:07;9.10;79.30
81210;DHT22;70685;52.496;13.420;2023-10-19T15:05:34;9.10;80.60
81210;DHT22;70685;52.496;13.420;2023-10-19T15:08:04;9.10;79.60
81210;DHT22;70685;52.496;13.420;2023-10-19T15:10:39;9.10;79.50
81210;DHT22;70685;52.496;13.420;2023-10-19T15:13:08;9.10;79.30
81210;DHT22;70685;52.496;13.420;2023-10-19T15:15:33;9.10;79.50
81210;DHT22;70685;52.496;13.420;2023-10-19T15:17:59;9.10;79.60
81210;DHT22;70685;52.496;13.420;2023-10-19T15:20:26;9.10;80.10
81210;DHT22;70685;52.496;13.420;2023-10-19T15:22:55;9.10;80.10
81210;DHT22;70685;52.496;13.420;2023-10-19T15:25:21;9.00;80.40
81210;DHT22;70685;52.496;13.420;2023-10-19T15:27:52;9.10;80.10
81210;DHT22;70685;52.496;13.420;2023-10-19T15:30:21;9.10;80.70
81210;DHT22;70685;52.496;13.420;2023-10-19T15:32:49;9.20;79.80
81210;DHT22;70685;52.496;13.420;2023-10-19T15:35:18;9.10;80.10
81210;DHT22;70685;52.496;13.420;2023-10-19T15:37:47;9.20;79.70
81210;DHT22;70685;52.496;13.420;2023-10-19T15:40:16;9.10;79.60
81210;DHT22;70685;52.496;13.420;2023-10-19T15:42:43;9.10;80.10
81210;DHT22;70685;52.496;13.420;2023-10-19T15:45:15;9.10;80.40
81210;DHT22;70685;52.496;13.420;2023-10-19T15:47:52;9.10;80.50
81210;DHT22;70685;52.496;13.420;2023-10-19T15:50:18;9.10;80.50
81210;DHT22;70685;52.496;13.420;2023-10-19T15:52:44;9.10;80.60
81210;DHT22;70685;52.496;13.420;2023-10-19T15:55:10;9.20;79.90
81210;DHT22;70685;52.496;13.420;2023-10-19T15:57:40;9.00;80.40
81210;DHT22;70685;52.496;13.420;2023-10-19T16:00:09;9.00;80.40
81210;DHT22;70685;52.496;13.420;2023-10-19T16:02:42;9.00;80.40